Flight Track Log - Related Links

Times and Time Zones

All times are in EDT time to prevent confusion due to time zone crossing. See the N667CD flight status page for this flight to view local times or setup timezone preferences in your user account.


Time Position Orientation Groundspeed Altitude Reporting Facility
EDT Latitude Longitude Course Direction KTS MPH feet Rate Location/Type
Fri 09:50:52 AM 30.2125 -81.9069 223° Southwest 84 97 900  Level Jacksonville Center
Fri 09:51:46 AM 30.1856 -81.9361 223° Southwest 121 139 1,600 776 Climbing Jacksonville Center
Fri 09:52:48 AM 30.1631 -81.9700 232° Southwest 131 151 2,400 683 Climbing Jacksonville Center
Fri 09:53:49 AM 30.1381 -82.0039 230° Southwest 133 153 3,000 645 Climbing Jacksonville Center
Fri 09:54:49 AM 30.1153 -82.0353 230° Southwest 132 152 3,700 639 Climbing Jacksonville Center
Fri 09:55:51 AM 30.0883 -82.0644 223° Southwest 129 148 4,300 634 Climbing Jacksonville Center
Fri 09:56:52 AM 30.0656 -82.0958 230° Southwest 130 150 5,000 639 Climbing Jacksonville Center
Fri 09:57:53 AM 30.0281 -82.1033 190° South 150 173 5,600 541 Climbing Jacksonville Center
Fri 09:58:54 AM 29.9844 -82.1108 188° South 146 168 6,100 492 Climbing Jacksonville Center
Fri 09:59:55 AM 29.9467 -82.1158 187° South 148 170 6,600 492 Climbing Jacksonville Center
Fri 10:00:56 AM 29.8989 -82.1211 185° South 149 171 7,100 492 Climbing Jacksonville Center
Fri 10:01:57 AM 29.8592 -82.1286 189° South 150 173 7,600 517 Climbing Jacksonville Center
Fri 10:02:52 AM 29.8194 -82.1361 189° South 150 173 8,100 466 Climbing Jacksonville Center
Fri 10:03:53 AM 29.7778 -82.1411 186° South 153 176 8,500 393 Climbing Jacksonville Center
Fri 10:04:54 AM 29.7361 -82.1486 189° South 154 177 8,900 246 Climbing Jacksonville Center
Fri 10:05:55 AM 29.6881 -82.1514 183° South 165 190 9,000 50 Climbing Jacksonville Center
Fri 10:06:55 AM 29.6403 -82.1614 190° South 168 193 9,000  Level Jacksonville Center
Fri 10:07:57 AM 29.5942 -82.1689 188° South 165 190 9,000  Level Jacksonville Center
Fri 10:09:04 AM 29.5464 -82.1739 185° South 162 186 9,000  Level Jacksonville Center
Fri 10:09:58 AM 29.5067 -82.1814 189° South 161 185 9,000  Level Jacksonville Center
Fri 10:10:59 AM 29.4608 -82.1867 186° South 161 185 9,000 -197 Level Jacksonville Center
Fri 10:12:00 AM 29.4150 -82.1964 190° South 168 193 8,600 -422 Descending Jacksonville Center
Fri 10:13:07 AM 29.3586 -82.2039 187° South 176 203 8,100 -469 Descending Jacksonville Center
Fri 10:14:08 AM 29.3106 -82.2114 188° South 177 204 7,600 -443 Descending Jacksonville Center
Fri 10:15:09 AM 29.2606 -82.2167 185° South 175 201 7,200 -327 Descending Jacksonville Center
Fri 10:15:58 AM 29.2208 -82.2217 186° South 174 200 7,000 -103 Descending Jacksonville Center
Fri 10:17:05 AM 29.1731 -82.2314 190° South 164 189 7,000  Level Jacksonville Center
Fri 10:18:12 AM 29.1208 -82.2200 169° South 163 188 7,000  Level Jacksonville Center
Fri 10:19:13 AM 29.0747 -82.2108 170° South 163 188 7,000  Level Jacksonville Center
Fri 10:20:08 AM 29.0331 -82.2039 172° South 164 189 7,000  Level Jacksonville Center
Fri 10:21:08 AM 28.9892 -82.1947 170° South 163 188 7,000  Level Jacksonville Center
Fri 10:22:16 AM 28.9411 -82.1878 173° South 165 190 7,000  Level Jacksonville Center
Fri 10:23:16 AM 28.8908 -82.1764 169° South 164 189 7,000  Level Jacksonville Center
Fri 10:24:12 AM 28.8492 -82.1694 172° South 162 186 7,000  Level Jacksonville Center
Fri 10:26:41 AM 28.7500 -82.1500 170° South 162 186 7,000  Level Tampa TRACON
Fri 10:27:41 AM 28.7000 -82.1333 164° South 163 188 7,000  Level Tampa TRACON
Fri 10:28:47 AM 28.6500 -82.1333 180° South 163 188 7,000  Level Tampa TRACON
Fri 10:29:47 AM 28.6000 -82.1167 164° South 162 186 7,000  Level Tampa TRACON
Fri 10:30:47 AM 28.5500 -82.1167 180° South 160 184 7,000  Level Tampa TRACON
Fri 10:31:47 AM 28.5167 -82.1000 156° South 161 185 7,000  Level Tampa TRACON
Fri 10:32:42 AM 28.4833 -82.1000 180° South 159 183 7,000  Level Tampa TRACON
Fri 10:33:42 AM 28.4333 -82.1000 180° South 161 185 7,000  Level Tampa TRACON
Fri 10:34:47 AM 28.3833 -82.0833 164° South 161 185 7,000  Level Tampa TRACON
Fri 10:35:48 AM 28.3333 -82.0833 180° South 161 185 7,000  Level Tampa TRACON
Fri 10:36:48 AM 28.3000 -82.0667 156° South 159 183 7,000  Level Tampa TRACON
Fri 10:37:48 AM 28.2500 -82.0667 180° South 161 185 7,000  Level Tampa TRACON
Fri 10:38:48 AM 28.2000 -82.0500 164° South 159 183 7,000  Level Tampa TRACON
Fri 10:39:48 AM 28.1667 -82.0500 180° South 159 183 7,000  Level Tampa TRACON
Fri 10:40:48 AM 28.1167 -82.0333 164° South 159 183 7,000  Level Tampa TRACON
Fri 10:41:48 AM 28.0667 -82.0500 196° South 157 181 7,000 -50 Level Tampa TRACON
Fri 10:42:48 AM 28.0333 -82.0667 204° Southwest 156 180 6,900 -250 Descending Tampa TRACON
Fri 10:43:48 AM 27.9833 -82.0833 196° South 168 193 6,500 -450 Descending Tampa TRACON
Fri 10:44:48 AM 27.9500 -82.1000 204° Southwest 172 198 6,000 -250 Descending Tampa TRACON
Fri 10:45:48 AM 27.9000 -82.1167 196° South 167 192 6,000  Level Tampa TRACON
Fri 10:46:48 AM 27.8667 -82.1500 221° Southwest 156 180 6,000  Level Tampa TRACON
Fri 10:47:54 AM 27.8167 -82.1667 196° South 152 175 6,000  Level Tampa TRACON
Fri 10:48:49 AM 27.7833 -82.1833 204° Southwest 153 176 6,000  Level Tampa TRACON
Fri 10:49:55 AM 27.7500 -82.2167 222° Southwest 154 177 6,000  Level Tampa TRACON
Fri 10:50:55 AM 27.7167 -82.2500 222° Southwest 154 177 6,000 -50 Level Tampa TRACON
Fri 10:51:55 AM 27.6667 -82.2667 196° South 155 178 5,900  Descending Tampa TRACON
Fri 10:52:55 AM 27.6333 -82.2833 204° Southwest 156 180 6,000 53 Climbing Tampa TRACON
Fri 10:53:49 AM 27.6000 -82.3167 222° Southwest 155 178 6,000  Level Tampa TRACON
Fri 10:54:55 AM 27.5500 -82.3167 180° South 157 181 6,000  Level Tampa TRACON
Fri 10:55:49 AM 27.5167 -82.3167 180° South 158 182 6,000 -365 Level Tampa TRACON
Fri 10:56:50 AM 27.4667 -82.3333 196° South 171 197 5,300 -744 Descending Tampa TRACON
Fri 10:57:50 AM 27.4167 -82.3500 196° South 184 212 4,500 -624 Descending Tampa TRACON
Fri 10:58:55 AM 27.3667 -82.3667 196° South 174 200 4,000 -286 Descending Tampa TRACON
Fri 10:59:56 AM 27.3333 -82.3833 204° Southwest 160 184 3,900  Descending Tampa TRACON
Fri 11:00:56 AM 27.2833 -82.4167 211° Southwest 153 176 4,000 -667 Climbing Tampa TRACON
Fri 11:02:02 AM 27.2333 -82.4167 180° South 168 193 2,500 -1,364 Descending Tampa TRACON

Login

Don't have an account? Register now (free) for customized features, flight alerts, and more!